sensor_id;sensor_type;location;lat;lon;timestamp;temperature;humidity
20911;DHT22;10615;42.702;23.314;2022-09-21T00:00:53;9.80;81.20
20911;DHT22;10615;42.702;23.314;2022-09-21T00:01:54;9.80;81.30
20911;DHT22;10615;42.702;23.314;2022-09-21T00:02:55;9.70;81.40
20911;DHT22;10615;42.702;23.314;2022-09-21T00:03:57;9.70;81.50
20911;DHT22;10615;42.702;23.314;2022-09-21T00:04:58;9.70;81.40
20911;DHT22;10615;42.702;23.314;2022-09-21T00:06:02;9.70;81.40
20911;DHT22;10615;42.702;23.314;2022-09-21T00:07:02;9.60;81.40
20911;DHT22;10615;42.702;23.314;2022-09-21T00:08:03;9.70;81.50
20911;DHT22;10615;42.702;23.314;2022-09-21T00:09:04;9.60;81.40
20911;DHT22;10615;42.702;23.314;2022-09-21T00:10:05;9.60;81.50
20911;DHT22;10615;42.702;23.314;2022-09-21T00:11:06;9.60;81.70
20911;DHT22;10615;42.702;23.314;2022-09-21T00:12:07;9.60;81.80
20911;DHT22;10615;42.702;23.314;2022-09-21T00:13:09;9.50;81.70
20911;DHT22;10615;42.702;23.314;2022-09-21T00:14:11;9.50;82.00
20911;DHT22;10615;42.702;23.314;2022-09-21T00:15:13;9.50;82.10
20911;DHT22;10615;42.702;23.314;2022-09-21T00:16:16;9.40;82.10
20911;DHT22;10615;42.702;23.314;2022-09-21T00:17:17;9.40;82.40
20911;DHT22;10615;42.702;23.314;2022-09-21T00:18:17;9.30;82.50
20911;DHT22;10615;42.702;23.314;2022-09-21T00:19:18;9.30;82.70
20911;DHT22;10615;42.702;23.314;2022-09-21T00:20:19;9.20;82.90
20911;DHT22;10615;42.702;23.314;2022-09-21T00:21:20;9.20;83.10
20911;DHT22;10615;42.702;23.314;2022-09-21T00:22:21;9.20;83.30
20911;DHT22;10615;42.702;23.314;2022-09-21T00:23:22;9.20;83.30
20911;DHT22;10615;42.702;23.314;2022-09-21T00:24:23;9.20;83.50
20911;DHT22;10615;42.702;23.314;2022-09-21T00:25:23;9.20;83.60
20911;DHT22;10615;42.702;23.314;2022-09-21T00:26:24;9.20;83.60
20911;DHT22;10615;42.702;23.314;2022-09-21T00:27:25;9.10;83.50
20911;DHT22;10615;42.702;23.314;2022-09-21T00:28:29;9.10;83.60
20911;DHT22;10615;42.702;23.314;2022-09-21T00:29:29;9.20;83.70
20911;DHT22;10615;42.702;23.314;2022-09-21T00:30:30;9.10;83.70
20911;DHT22;10615;42.702;23.314;2022-09-21T00:31:30;9.10;83.70
20911;DHT22;10615;42.702;23.314;2022-09-21T00:32:32;9.10;83.90
20911;DHT22;10615;42.702;23.314;2022-09-21T00:33:32;9.10;84.00
20911;DHT22;10615;42.702;23.314;2022-09-21T00:34:33;9.10;84.00
20911;DHT22;10615;42.702;23.314;2022-09-21T00:35:34;9.10;84.20
20911;DHT22;10615;42.702;23.314;2022-09-21T00:36:34;9.10;84.30
20911;DHT22;10615;42.702;23.314;2022-09-21T00:37:35;9.00;84.20
20911;DHT22;10615;42.702;23.314;2022-09-21T00:38:36;9.00;84.20
20911;DHT22;10615;42.702;23.314;2022-09-21T00:39:36;9.00;84.30
20911;DHT22;10615;42.702;23.314;2022-09-21T00:40:37;9.00;84.40
20911;DHT22;10615;42.702;23.314;2022-09-21T00:41:38;9.00;84.60
20911;DHT22;10615;42.702;23.314;2022-09-21T00:42:38;9.00;84.60
20911;DHT22;10615;42.702;23.314;2022-09-21T00:43:42;9.00;84.60
20911;DHT22;10615;42.702;23.314;2022-09-21T00:44:44;8.90;85.50
20911;DHT22;10615;42.702;23.314;2022-09-21T00:45:45;8.90;84.90
20911;DHT22;10615;42.702;23.314;2022-09-21T00:46:46;8.90;85.20
20911;DHT22;10615;42.702;23.314;2022-09-21T00:47:49;8.90;85.40
20911;DHT22;10615;42.702;23.314;2022-09-21T00:48:50;8.90;85.60
20911;DHT22;10615;42.702;23.314;2022-09-21T00:49:52;8.90;86.00
20911;DHT22;10615;42.702;23.314;2022-09-21T00:50:54;8.90;86.10
20911;DHT22;10615;42.702;23.314;2022-09-21T00:51:56;8.90;86.10
20911;DHT22;10615;42.702;23.314;2022-09-21T00:52:58;8.90;86.00
20911;DHT22;10615;42.702;23.314;2022-09-21T00:54:00;8.90;86.30
20911;DHT22;10615;42.702;23.314;2022-09-21T00:55:06;9.00;86.30
20911;DHT22;10615;42.702;23.314;2022-09-21T00:56:09;9.00;86.20
20911;DHT22;10615;42.702;23.314;2022-09-21T00:57:10;9.00;86.10
20911;DHT22;10615;42.702;23.314;2022-09-21T00:58:12;9.00;86.00
20911;DHT22;10615;42.702;23.314;2022-09-21T00:59:14;9.00;86.00
20911;DHT22;10615;42.702;23.314;2022-09-21T01:00:15;9.00;86.10
20911;DHT22;10615;42.702;23.314;2022-09-21T01:01:15;9.00;86.30
20911;DHT22;10615;42.702;23.314;2022-09-21T01:02:17;9.00;86.60
20911;DHT22;10615;42.702;23.314;2022-09-21T01:03:17;9.10;86.70
20911;DHT22;10615;42.702;23.314;2022-09-21T01:04:18;9.00;86.50
20911;DHT22;10615;42.702;23.314;2022-09-21T01:05:19;9.10;87.70
20911;DHT22;10615;42.702;23.314;2022-09-21T01:06:19;9.00;86.80
20911;DHT22;10615;42.702;23.314;2022-09-21T01:07:25;9.00;86.70
20911;DHT22;10615;42.702;23.314;2022-09-21T01:08:27;9.00;86.60
20911;DHT22;10615;42.702;23.314;2022-09-21T01:09:28;9.00;86.60
20911;DHT22;10615;42.702;23.314;2022-09-21T01:10:31;9.00;86.60
20911;DHT22;10615;42.702;23.314;2022-09-21T01:11:42;9.00;86.70
20911;DHT22;10615;42.702;23.314;2022-09-21T01:16:23;8.90;87.20
20911;DHT22;10615;42.702;23.314;2022-09-21T01:18:30;8.90;87.20
20911;DHT22;10615;42.702;23.314;2022-09-21T01:21:06;8.90;87.30
20911;DHT22;10615;42.702;23.314;2022-09-21T01:22:19;9.00;87.40
20911;DHT22;10615;42.702;23.314;2022-09-21T01:27:21;8.90;87.10
20911;DHT22;10615;42.702;23.314;2022-09-21T01:29:54;8.90;87.40
20911;DHT22;10615;42.702;23.314;2022-09-21T01:30:57;8.90;87.50
20911;DHT22;10615;42.702;23.314;2022-09-21T01:33:24;8.90;87.80
20911;DHT22;10615;42.702;23.314;2022-09-21T01:34:36;8.90;88.00
20911;DHT22;10615;42.702;23.314;2022-09-21T01:35:40;8.90;88.10
20911;DHT22;10615;42.702;23.314;2022-09-21T01:36:42;8.90;88.10
20911;DHT22;10615;42.702;23.314;2022-09-21T01:37:46;8.90;88.10
20911;DHT22;10615;42.702;23.314;2022-09-21T01:38:47;8.90;88.00
20911;DHT22;10615;42.702;23.314;2022-09-21T01:39:53;8.90;87.90
20911;DHT22;10615;42.702;23.314;2022-09-21T01:40:57;8.90;88.00
20911;DHT22;10615;42.702;23.314;2022-09-21T01:41:59;8.90;87.90
20911;DHT22;10615;42.702;23.314;2022-09-21T01:43:02;8.90;87.90
20911;DHT22;10615;42.702;23.314;2022-09-21T01:44:05;8.90;87.90
20911;DHT22;10615;42.702;23.314;2022-09-21T01:45:07;8.90;88.00
20911;DHT22;10615;42.702;23.314;2022-09-21T01:46:12;8.90;88.10
20911;DHT22;10615;42.702;23.314;2022-09-21T01:47:14;8.90;88.50
20911;DHT22;10615;42.702;23.314;2022-09-21T01:48:16;8.90;88.60
20911;DHT22;10615;42.702;23.314;2022-09-21T01:49:22;8.90;88.90
20911;DHT22;10615;42.702;23.314;2022-09-21T01:50:24;8.90;88.90
20911;DHT22;10615;42.702;23.314;2022-09-21T01:51:26;8.90;88.90
20911;DHT22;10615;42.702;23.314;2022-09-21T01:52:33;8.90;89.00
20911;DHT22;10615;42.702;23.314;2022-09-21T01:53:58;8.90;89.80
20911;DHT22;10615;42.702;23.314;2022-09-21T01:54:58;8.90;88.90
20911;DHT22;10615;42.702;23.314;2022-09-21T01:56:00;8.90;89.00
20911;DHT22;10615;42.702;23.314;2022-09-21T01:57:05;8.90;88.90
20911;DHT22;10615;42.702;23.314;2022-09-21T02:00:32;8.80;89.10
20911;DHT22;10615;42.702;23.314;2022-09-21T02:01:34;8.80;89.40
20911;DHT22;10615;42.702;23.314;2022-09-21T02:03:37;8.80;89.50
20911;DHT22;10615;42.702;23.314;2022-09-21T02:04:39;8.80;89.70
20911;DHT22;10615;42.702;23.314;2022-09-21T02:05:39;8.80;89.70
20911;DHT22;10615;42.702;23.314;2022-09-21T02:06:42;8.80;90.00
20911;DHT22;10615;42.702;23.314;2022-09-21T02:07:44;8.80;90.00
20911;DHT22;10615;42.702;23.314;2022-09-21T02:08:45;8.80;90.00
20911;DHT22;10615;42.702;23.314;2022-09-21T02:09:46;8.80;90.00
20911;DHT22;10615;42.702;23.314;2022-09-21T02:10:48;8.80;90.00
20911;DHT22;10615;42.702;23.314;2022-09-21T02:11:50;8.80;90.00
20911;DHT22;10615;42.702;23.314;2022-09-21T02:12:54;8.80;90.00
20911;DHT22;10615;42.702;23.314;2022-09-21T02:13:57;8.80;90.10
20911;DHT22;10615;42.702;23.314;2022-09-21T02:14:58;8.80;90.20
20911;DHT22;10615;42.702;23.314;2022-09-21T02:21:24;8.80;90.40
20911;DHT22;10615;42.702;23.314;2022-09-21T02:22:47;8.80;90.40
20911;DHT22;10615;42.702;23.314;2022-09-21T02:23:56;8.80;90.50
20911;DHT22;10615;42.702;23.314;2022-09-21T02:25:10;8.80;90.60
20911;DHT22;10615;42.702;23.314;2022-09-21T02:26:14;8.80;90.60
20911;DHT22;10615;42.702;23.314;2022-09-21T02:27:34;8.80;90.60
20911;DHT22;10615;42.702;23.314;2022-09-21T02:30:05;8.80;90.60
20911;DHT22;10615;42.702;23.314;2022-09-21T02:33:36;8.80;90.50
20911;DHT22;10615;42.702;23.314;2022-09-21T02:34:48;8.70;90.40
20911;DHT22;10615;42.702;23.314;2022-09-21T02:36:00;8.70;90.50
20911;DHT22;10615;42.702;23.314;2022-09-21T02:39:18;8.60;90.60
20911;DHT22;10615;42.702;23.314;2022-09-21T02:40:29;8.60;90.70
20911;DHT22;10615;42.702;23.314;2022-09-21T02:41:36;8.60;90.80
20911;DHT22;10615;42.702;23.314;2022-09-21T02:42:38;8.50;90.90
20911;DHT22;10615;42.702;23.314;2022-09-21T02:44:23;8.50;91.00
20911;DHT22;10615;42.702;23.314;2022-09-21T02:45:13;8.50;91.10
20911;DHT22;10615;42.702;23.314;2022-09-21T02:46:17;8.50;91.20
20911;DHT22;10615;42.702;23.314;2022-09-21T02:47:23;8.50;91.20
20911;DHT22;10615;42.702;23.314;2022-09-21T02:48:34;8.50;91.30
20911;DHT22;10615;42.702;23.314;2022-09-21T02:49:40;8.50;91.30
20911;DHT22;10615;42.702;23.314;2022-09-21T02:50:49;8.40;91.30
20911;DHT22;10615;42.702;23.314;2022-09-21T02:51:50;8.50;91.40
20911;DHT22;10615;42.702;23.314;2022-09-21T02:52:52;8.40;91.30
20911;DHT22;10615;42.702;23.314;2022-09-21T02:53:54;8.40;91.40
20911;DHT22;10615;42.702;23.314;2022-09-21T02:54:55;8.40;91.50
20911;DHT22;10615;42.702;23.314;2022-09-21T02:55:57;8.40;91.60
20911;DHT22;10615;42.702;23.314;2022-09-21T02:56:58;8.40;91.70
20911;DHT22;10615;42.702;23.314;2022-09-21T02:58:01;8.30;91.80
20911;DHT22;10615;42.702;23.314;2022-09-21T02:59:03;8.30;91.90
20911;DHT22;10615;42.702;23.314;2022-09-21T03:00:05;8.30;92.10
20911;DHT22;10615;42.702;23.314;2022-09-21T03:01:06;8.30;92.20
20911;DHT22;10615;42.702;23.314;2022-09-21T03:02:10;8.30;92.40
20911;DHT22;10615;42.702;23.314;2022-09-21T03:03:15;8.40;92.50
20911;DHT22;10615;42.702;23.314;2022-09-21T03:04:19;8.40;92.80
20911;DHT22;10615;42.702;23.314;2022-09-21T03:06:22;8.40;92.10
20911;DHT22;10615;42.702;23.314;2022-09-21T03:07:22;8.30;92.40
20911;DHT22;10615;42.702;23.314;2022-09-21T03:08:23;8.30;92.40
20911;DHT22;10615;42.702;23.314;2022-09-21T03:09:23;8.30;92.50
20911;DHT22;10615;42.702;23.314;2022-09-21T03:10:24;8.30;92.60
20911;DHT22;10615;42.702;23.314;2022-09-21T03:11:24;8.30;92.60
20911;DHT22;10615;42.702;23.314;2022-09-21T03:12:25;8.30;92.70
20911;DHT22;10615;42.702;23.314;2022-09-21T03:13:26;8.30;92.70
20911;DHT22;10615;42.702;23.314;2022-09-21T03:14:26;8.30;92.80
20911;DHT22;10615;42.702;23.314;2022-09-21T03:15:27;8.30;92.70
20911;DHT22;10615;42.702;23.314;2022-09-21T03:16:27;8.30;92.70
20911;DHT22;10615;42.702;23.314;2022-09-21T03:17:28;8.20;92.70
20911;DHT22;10615;42.702;23.314;2022-09-21T03:18:29;8.30;92.80
20911;DHT22;10615;42.702;23.314;2022-09-21T03:19:30;8.20;92.80
20911;DHT22;10615;42.702;23.314;2022-09-21T03:20:31;8.30;92.80
20911;DHT22;10615;42.702;23.314;2022-09-21T03:21:32;8.20;92.80
20911;DHT22;10615;42.702;23.314;2022-09-21T03:22:32;8.20;92.90
20911;DHT22;10615;42.702;23.314;2022-09-21T03:23:33;8.20;92.90
20911;DHT22;10615;42.702;23.314;2022-09-21T03:24:33;8.30;92.90
20911;DHT22;10615;42.702;23.314;2022-09-21T03:25:46;8.20;92.90
20911;DHT22;10615;42.702;23.314;2022-09-21T03:26:46;8.20;93.00
20911;DHT22;10615;42.702;23.314;2022-09-21T03:27:47;8.20;93.00
20911;DHT22;10615;42.702;23.314;2022-09-21T03:28:48;8.20;93.10
20911;DHT22;10615;42.702;23.314;2022-09-21T03:29:49;8.20;93.10
20911;DHT22;10615;42.702;23.314;2022-09-21T03:30:50;8.20;93.10
20911;DHT22;10615;42.702;23.314;2022-09-21T03:31:51;8.20;93.20
20911;DHT22;10615;42.702;23.314;2022-09-21T03:32:54;8.20;93.20
20911;DHT22;10615;42.702;23.314;2022-09-21T03:33:55;8.20;93.30
20911;DHT22;10615;42.702;23.314;2022-09-21T03:34:55;8.20;93.30
20911;DHT22;10615;42.702;23.314;2022-09-21T03:35:56;8.20;93.40
20911;DHT22;10615;42.702;23.314;2022-09-21T03:36:56;8.20;93.50
20911;DHT22;10615;42.702;23.314;2022-09-21T03:37:57;8.30;93.70
20911;DHT22;10615;42.702;23.314;2022-09-21T03:38:58;8.20;93.70
20911;DHT22;10615;42.702;23.314;2022-09-21T03:39:59;8.20;93.70
20911;DHT22;10615;42.702;23.314;2022-09-21T03:40:59;8.30;93.60
20911;DHT22;10615;42.702;23.314;2022-09-21T03:42:00;8.30;93.60
20911;DHT22;10615;42.702;23.314;2022-09-21T03:43:01;8.20;93.50
20911;DHT22;10615;42.702;23.314;2022-09-21T03:44:02;8.20;93.50
20911;DHT22;10615;42.702;23.314;2022-09-21T03:45:03;8.20;93.60
20911;DHT22;10615;42.702;23.314;2022-09-21T03:46:03;8.20;93.60
20911;DHT22;10615;42.702;23.314;2022-09-21T03:47:04;8.20;93.70
20911;DHT22;10615;42.702;23.314;2022-09-21T03:48:05;8.20;93.70
20911;DHT22;10615;42.702;23.314;2022-09-21T03:49:06;8.20;93.70
20911;DHT22;10615;42.702;23.314;2022-09-21T03:50:07;8.20;93.70
20911;DHT22;10615;42.702;23.314;2022-09-21T03:51:07;8.20;93.80
20911;DHT22;10615;42.702;23.314;2022-09-21T03:52:08;8.20;93.80
20911;DHT22;10615;42.702;23.314;2022-09-21T03:53:08;8.20;93.80
20911;DHT22;10615;42.702;23.314;2022-09-21T03:54:09;8.20;93.90
20911;DHT22;10615;42.702;23.314;2022-09-21T03:55:10;8.20;93.90
20911;DHT22;10615;42.702;23.314;2022-09-21T03:56:10;8.20;93.90
20911;DHT22;10615;42.702;23.314;2022-09-21T03:57:11;8.20;94.00
20911;DHT22;10615;42.702;23.314;2022-09-21T03:58:12;8.20;94.00
20911;DHT22;10615;42.702;23.314;2022-09-21T03:59:14;8.20;94.00
20911;DHT22;10615;42.702;23.314;2022-09-21T04:00:14;8.20;94.00
20911;DHT22;10615;42.702;23.314;2022-09-21T04:01:15;8.20;94.00
20911;DHT22;10615;42.702;23.314;2022-09-21T04:02:16;8.20;94.00
20911;DHT22;10615;42.702;23.314;2022-09-21T04:03:16;8.20;94.00
20911;DHT22;10615;42.702;23.314;2022-09-21T04:04:17;8.20;94.00
20911;DHT22;10615;42.702;23.314;2022-09-21T04:05:17;8.20;94.40
20911;DHT22;10615;42.702;23.314;2022-09-21T04:06:18;8.20;94.00
20911;DHT22;10615;42.702;23.314;2022-09-21T04:07:19;8.20;94.00
20911;DHT22;10615;42.702;23.314;2022-09-21T04:08:19;8.20;94.10
20911;DHT22;10615;42.702;23.314;2022-09-21T04:09:20;8.20;94.20
20911;DHT22;10615;42.702;23.314;2022-09-21T04:10:21;8.20;94.30
20911;DHT22;10615;42.702;23.314;2022-09-21T04:11:26;8.30;94.30
20911;DHT22;10615;42.702;23.314;2022-09-21T04:12:27;8.30;94.40
20911;DHT22;10615;42.702;23.314;2022-09-21T04:13:27;8.30;94.40
20911;DHT22;10615;42.702;23.314;2022-09-21T04:14:28;8.30;94.40
20911;DHT22;10615;42.702;23.314;2022-09-21T04:15:29;8.30;94.30
20911;DHT22;10615;42.702;23.314;2022-09-21T04:16:30;8.30;94.30
20911;DHT22;10615;42.702;23.314;2022-09-21T04:17:30;8.30;94.30
20911;DHT22;10615;42.702;23.314;2022-09-21T04:18:31;8.40;94.30
20911;DHT22;10615;42.702;23.314;2022-09-21T04:19:32;8.40;94.30
20911;DHT22;10615;42.702;23.314;2022-09-21T04:20:32;8.40;94.30
20911;DHT22;10615;42.702;23.314;2022-09-21T04:21:33;8.50;94.40
20911;DHT22;10615;42.702;23.314;2022-09-21T04:22:36;8.50;94.40
20911;DHT22;10615;42.702;23.314;2022-09-21T04:23:36;8.50;94.50
20911;DHT22;10615;42.702;23.314;2022-09-21T04:24:37;8.60;94.40
20911;DHT22;10615;42.702;23.314;2022-09-21T04:25:40;8.70;94.20
20911;DHT22;10615;42.702;23.314;2022-09-21T04:26:41;8.90;94.10
20911;DHT22;10615;42.702;23.314;2022-09-21T04:27:41;9.30;93.90
20911;DHT22;10615;42.702;23.314;2022-09-21T04:28:42;9.70;93.60
20911;DHT22;10615;42.702;23.314;2022-09-21T04:29:42;10.10;92.90
20911;DHT22;10615;42.702;23.314;2022-09-21T04:30:43;10.50;92.20
20911;DHT22;10615;42.702;23.314;2022-09-21T04:32:45;11.00;90.00
20911;DHT22;10615;42.702;23.314;2022-09-21T04:33:53;11.10;89.10
20911;DHT22;10615;42.702;23.314;2022-09-21T04:34:53;11.20;87.50
20911;DHT22;10615;42.702;23.314;2022-09-21T04:35:55;11.40;86.50
20911;DHT22;10615;42.702;23.314;2022-09-21T04:36:58;11.70;85.90
20911;DHT22;10615;42.702;23.314;2022-09-21T04:37:59;12.10;85.00
20911;DHT22;10615;42.702;23.314;2022-09-21T04:38:59;12.50;83.50
20911;DHT22;10615;42.702;23.314;2022-09-21T04:40:00;13.00;81.80
20911;DHT22;10615;42.702;23.314;2022-09-21T04:41:00;14.00;77.80
20911;DHT22;10615;42.702;23.314;2022-09-21T04:42:02;14.30;77.60
20911;DHT22;10615;42.702;23.314;2022-09-21T04:43:04;15.00;75.10
20911;DHT22;10615;42.702;23.314;2022-09-21T04:44:04;15.60;72.70
20911;DHT22;10615;42.702;23.314;2022-09-21T04:45:05;16.20;70.30
20911;DHT22;10615;42.702;23.314;2022-09-21T04:46:07;16.70;68.00
20911;DHT22;10615;42.702;23.314;2022-09-21T04:47:08;17.20;65.80
20911;DHT22;10615;42.702;23.314;2022-09-21T04:48:09;17.60;63.70
20911;DHT22;10615;42.702;23.314;2022-09-21T04:49:09;17.80;62.10
20911;DHT22;10615;42.702;23.314;2022-09-21T04:50:10;17.70;60.70
20911;DHT22;10615;42.702;23.314;2022-09-21T04:51:11;17.80;60.00
20911;DHT22;10615;42.702;23.314;2022-09-21T04:52:12;17.90;59.30
20911;DHT22;10615;42.702;23.314;2022-09-21T04:53:12;17.70;58.80
20911;DHT22;10615;42.702;23.314;2022-09-21T04:54:13;17.40;58.50
20911;DHT22;10615;42.702;23.314;2022-09-21T04:55:13;17.10;58.50
20911;DHT22;10615;42.702;23.314;2022-09-21T04:56:14;16.90;58.80
20911;DHT22;10615;42.702;23.314;2022-09-21T04:57:15;16.60;59.10
20911;DHT22;10615;42.702;23.314;2022-09-21T04:58:15;16.40;59.50
20911;DHT22;10615;42.702;23.314;2022-09-21T04:59:16;16.20;59.90
20911;DHT22;10615;42.702;23.314;2022-09-21T05:00:16;16.10;60.50
20911;DHT22;10615;42.702;23.314;2022-09-21T05:01:18;16.10;61.00
20911;DHT22;10615;42.702;23.314;2022-09-21T05:02:19;16.10;61.10
20911;DHT22;10615;42.702;23.314;2022-09-21T05:03:20;16.30;61.40
20911;DHT22;10615;42.702;23.314;2022-09-21T05:04:21;16.30;61.20
20911;DHT22;10615;42.702;23.314;2022-09-21T05:05:21;16.30;60.80
20911;DHT22;10615;42.702;23.314;2022-09-21T05:06:22;16.50;60.70
20911;DHT22;10615;42.702;23.314;2022-09-21T05:07:22;16.50;60.30
20911;DHT22;10615;42.702;23.314;2022-09-21T05:08:24;16.60;60.00
20911;DHT22;10615;42.702;23.314;2022-09-21T05:09:43;16.70;59.50
20911;DHT22;10615;42.702;23.314;2022-09-21T05:11:01;16.90;59.10
20911;DHT22;10615;42.702;23.314;2022-09-21T05:12:02;17.10;58.60
20911;DHT22;10615;42.702;23.314;2022-09-21T05:13:03;17.40;58.10
20911;DHT22;10615;42.702;23.314;2022-09-21T05:14:03;17.70;57.80
20911;DHT22;10615;42.702;23.314;2022-09-21T05:15:04;17.90;57.20
20911;DHT22;10615;42.702;23.314;2022-09-21T05:16:05;18.20;56.50
20911;DHT22;10615;42.702;23.314;2022-09-21T05:17:05;18.50;55.80
20911;DHT22;10615;42.702;23.314;2022-09-21T05:18:06;18.80;55.20
20911;DHT22;10615;42.702;23.314;2022-09-21T05:19:07;19.20;54.90
20911;DHT22;10615;42.702;23.314;2022-09-21T05:20:08;19.40;54.10
20911;DHT22;10615;42.702;23.314;2022-09-21T05:21:10;19.50;53.40
20911;DHT22;10615;42.702;23.314;2022-09-21T05:22:11;19.70;53.10
20911;DHT22;10615;42.702;23.314;2022-09-21T05:23:11;20.10;52.90
20911;DHT22;10615;42.702;23.314;2022-09-21T05:24:12;20.80;52.30
20911;DHT22;10615;42.702;23.314;2022-09-21T05:25:12;21.40;51.40
20911;DHT22;10615;42.702;23.314;2022-09-21T05:26:13;21.60;50.20
20911;DHT22;10615;42.702;23.314;2022-09-21T05:27:13;21.80;49.50
20911;DHT22;10615;42.702;23.314;2022-09-21T05:28:15;21.90;48.90
20911;DHT22;10615;42.702;23.314;2022-09-21T05:29:15;21.80;48.10
20911;DHT22;10615;42.702;23.314;2022-09-21T05:30:16;21.80;47.80
20911;DHT22;10615;42.702;23.314;2022-09-21T05:33:52;21.50;47.30
20911;DHT22;10615;42.702;23.314;2022-09-21T05:34:56;21.30;47.20
20911;DHT22;10615;42.702;23.314;2022-09-21T05:37:38;20.90;47.40
20911;DHT22;10615;42.702;23.314;2022-09-21T05:38:30;20.90;47.80
20911;DHT22;10615;42.702;23.314;2022-09-21T05:39:31;20.90;48.20
20911;DHT22;10615;42.702;23.314;2022-09-21T05:40:31;20.90;48.10
20911;DHT22;10615;42.702;23.314;2022-09-21T05:41:32;20.70;47.90
20911;DHT22;10615;42.702;23.314;2022-09-21T05:42:33;20.60;48.10
20911;DHT22;10615;42.702;23.314;2022-09-21T05:43:34;20.60;48.20
20911;DHT22;10615;42.702;23.314;2022-09-21T05:44:34;20.60;48.30
20911;DHT22;10615;42.702;23.314;2022-09-21T05:45:35;20.90;48.70
20911;DHT22;10615;42.702;23.314;2022-09-21T05:47:54;22.30;48.30
20911;DHT22;10615;42.702;23.314;2022-09-21T05:48:58;23.10;47.10
20911;DHT22;10615;42.702;23.314;2022-09-21T05:51:02;23.60;44.40
20911;DHT22;10615;42.702;23.314;2022-09-21T05:52:15;23.70;43.60
20911;DHT22;10615;42.702;23.314;2022-09-21T05:54:37;24.00;42.90
20911;DHT22;10615;42.702;23.314;2022-09-21T05:56:15;24.30;42.60
20911;DHT22;10615;42.702;23.314;2022-09-21T05:58:24;24.40;41.10
20911;DHT22;10615;42.702;23.314;2022-09-21T06:00:30;24.20;41.10
20911;DHT22;10615;42.702;23.314;2022-09-21T06:03:42;23.60;41.00
20911;DHT22;10615;42.702;23.314;2022-09-21T06:04:43;23.30;41.30
20911;DHT22;10615;42.702;23.314;2022-09-21T06:05:44;23.00;41.70
20911;DHT22;10615;42.702;23.314;2022-09-21T06:06:44;22.60;42.10
20911;DHT22;10615;42.702;23.314;2022-09-21T06:07:45;22.20;42.60
20911;DHT22;10615;42.702;23.314;2022-09-21T06:08:45;22.00;43.30
20911;DHT22;10615;42.702;23.314;2022-09-21T06:09:46;21.70;43.90
20911;DHT22;10615;42.702;23.314;2022-09-21T06:10:46;21.40;44.30
20911;DHT22;10615;42.702;23.314;2022-09-21T06:11:47;21.20;44.80
20911;DHT22;10615;42.702;23.314;2022-09-21T06:12:48;21.00;45.30
20911;DHT22;10615;42.702;23.314;2022-09-21T06:13:48;20.70;45.70
20911;DHT22;10615;42.702;23.314;2022-09-21T06:14:49;20.50;46.40
20911;DHT22;10615;42.702;23.314;2022-09-21T06:15:49;20.50;46.80
20911;DHT22;10615;42.702;23.314;2022-09-21T06:16:50;20.50;47.00
20911;DHT22;10615;42.702;23.314;2022-09-21T06:17:51;20.50;47.10
20911;DHT22;10615;42.702;23.314;2022-09-21T06:18:51;20.40;47.10
20911;DHT22;10615;42.702;23.314;2022-09-21T06:19:52;20.50;47.30
20911;DHT22;10615;42.702;23.314;2022-09-21T06:20:53;20.50;47.30
20911;DHT22;10615;42.702;23.314;2022-09-21T06:21:53;20.50;47.30
20911;DHT22;10615;42.702;23.314;2022-09-21T06:22:58;20.60;47.30
20911;DHT22;10615;42.702;23.314;2022-09-21T06:23:59;20.60;47.00
20911;DHT22;10615;42.702;23.314;2022-09-21T06:24:59;20.60;46.90
20911;DHT22;10615;42.702;23.314;2022-09-21T06:26:00;20.70;47.00
20911;DHT22;10615;42.702;23.314;2022-09-21T06:27:01;20.80;46.90
20911;DHT22;10615;42.702;23.314;2022-09-21T06:28:02;20.90;46.80
20911;DHT22;10615;42.702;23.314;2022-09-21T06:29:03;21.00;46.70
20911;DHT22;10615;42.702;23.314;2022-09-21T06:30:04;21.20;46.40
20911;DHT22;10615;42.702;23.314;2022-09-21T06:31:05;21.40;46.20
20911;DHT22;10615;42.702;23.314;2022-09-21T06:32:05;21.70;46.10
20911;DHT22;10615;42.702;23.314;2022-09-21T06:33:06;22.10;46.50
20911;DHT22;10615;42.702;23.314;2022-09-21T06:34:06;22.50;44.90
20911;DHT22;10615;42.702;23.314;2022-09-21T06:35:07;22.80;44.20
20911;DHT22;10615;42.702;23.314;2022-09-21T06:36:08;22.90;43.60
20911;DHT22;10615;42.702;23.314;2022-09-21T06:37:08;23.10;43.40
20911;DHT22;10615;42.702;23.314;2022-09-21T06:38:09;23.40;43.30
20911;DHT22;10615;42.702;23.314;2022-09-21T06:39:10;23.80;42.90
20911;DHT22;10615;42.702;23.314;2022-09-21T06:40:10;24.30;42.20
20911;DHT22;10615;42.702;23.314;2022-09-21T06:41:11;24.90;41.50
20911;DHT22;10615;42.702;23.314;2022-09-21T06:42:11;25.70;40.80
20911;DHT22;10615;42.702;23.314;2022-09-21T06:43:12;26.10;39.80
20911;DHT22;10615;42.702;23.314;2022-09-21T06:44:12;26.40;38.90
20911;DHT22;10615;42.702;23.314;2022-09-21T06:45:13;26.40;38.00
20911;DHT22;10615;42.702;23.314;2022-09-21T06:46:13;26.50;37.70
20911;DHT22;10615;42.702;23.314;2022-09-21T06:47:14;26.70;37.40
20911;DHT22;10615;42.702;23.314;2022-09-21T06:48:14;26.70;37.10
20911;DHT22;10615;42.702;23.314;2022-09-21T06:49:15;26.60;37.00
20911;DHT22;10615;42.702;23.314;2022-09-21T06:50:15;26.60;37.00
20911;DHT22;10615;42.702;23.314;2022-09-21T06:51:16;26.50;37.00
20911;DHT22;10615;42.702;23.314;2022-09-21T06:52:16;26.70;37.10
20911;DHT22;10615;42.702;23.314;2022-09-21T06:53:17;26.70;36.90
20911;DHT22;10615;42.702;23.314;2022-09-21T06:54:18;26.90;36.90
20911;DHT22;10615;42.702;23.314;2022-09-21T06:55:18;26.90;36.60
20911;DHT22;10615;42.702;23.314;2022-09-21T06:56:19;26.60;36.40
20911;DHT22;10615;42.702;23.314;2022-09-21T06:57:20;26.30;36.50
20911;DHT22;10615;42.702;23.314;2022-09-21T06:58:20;26.00;36.80
20911;DHT22;10615;42.702;23.314;2022-09-21T06:59:21;26.00;37.40
20911;DHT22;10615;42.702;23.314;2022-09-21T07:00:21;25.80;37.40
20911;DHT22;10615;42.702;23.314;2022-09-21T07:01:22;25.80;37.80
20911;DHT22;10615;42.702;23.314;2022-09-21T10:57:06;18.50;46.00
20911;DHT22;10615;42.702;23.314;2022-09-21T10:58:10;18.50;46.00
20911;DHT22;10615;42.702;23.314;2022-09-21T10:59:21;18.40;45.90
20911;DHT22;10615;42.702;23.314;2022-09-21T11:01:30;18.30;46.00
20911;DHT22;10615;42.702;23.314;2022-09-21T11:02:36;18.30;46.40
20911;DHT22;10615;42.702;23.314;2022-09-21T11:03:45;18.30;46.60
20911;DHT22;10615;42.702;23.314;2022-09-21T11:04:50;18.20;46.70
20911;DHT22;10615;42.702;23.314;2022-09-21T11:05:52;18.10;47.00
20911;DHT22;10615;42.702;23.314;2022-09-21T11:07:06;18.00;47.40
20911;DHT22;10615;42.702;23.314;2022-09-21T11:08:22;17.90;47.50
20911;DHT22;10615;42.702;23.314;2022-09-21T11:09:38;17.90;48.00